sensor_id;sensor_type;location;lat;lon;timestamp;temperature;humidity
13205;DHT22;6667;52.634;9.226;2023-11-21T00:02:20;8.10;99.90
13205;DHT22;6667;52.634;9.226;2023-11-21T00:04:47;8.10;99.90
13205;DHT22;6667;52.634;9.226;2023-11-21T00:07:14;8.00;99.90
13205;DHT22;6667;52.634;9.226;2023-11-21T00:09:41;8.00;99.90
13205;DHT22;6667;52.634;9.226;2023-11-21T00:12:09;8.10;99.90
13205;DHT22;6667;52.634;9.226;2023-11-21T00:14:36;8.00;99.90
13205;DHT22;6667;52.634;9.226;2023-11-21T00:17:03;8.00;99.90
13205;DHT22;6667;52.634;9.226;2023-11-21T00:19:30;8.00;99.90
13205;DHT22;6667;52.634;9.226;2023-11-21T00:21:57;8.00;99.90
13205;DHT22;6667;52.634;9.226;2023-11-21T00:24:24;8.00;99.90
13205;DHT22;6667;52.634;9.226;2023-11-21T00:26:51;8.00;99.90
13205;DHT22;6667;52.634;9.226;2023-11-21T00:29:20;8.00;99.90
13205;DHT22;6667;52.634;9.226;2023-11-21T00:31:46;8.10;99.90
13205;DHT22;6667;52.634;9.226;2023-11-21T00:34:13;8.10;99.90
13205;DHT22;6667;52.634;9.226;2023-11-21T00:36:40;8.10;99.90
13205;DHT22;6667;52.634;9.226;2023-11-21T00:39:07;8.10;99.90
13205;DHT22;6667;52.634;9.226;2023-11-21T00:41:34;8.10;99.90
13205;DHT22;6667;52.634;9.226;2023-11-21T00:44:01;8.10;99.90
13205;DHT22;6667;52.634;9.226;2023-11-21T00:46:29;8.10;99.90
13205;DHT22;6667;52.634;9.226;2023-11-21T00:48:56;8.10;99.90
13205;DHT22;6667;52.634;9.226;2023-11-21T00:51:23;8.10;99.90
13205;DHT22;6667;52.634;9.226;2023-11-21T00:53:50;8.00;99.90
13205;DHT22;6667;52.634;9.226;2023-11-21T00:56:16;8.10;99.90
13205;DHT22;6667;52.634;9.226;2023-11-21T00:58:43;8.00;99.90
13205;DHT22;6667;52.634;9.226;2023-11-21T01:01:15;8.00;99.90
13205;DHT22;6667;52.634;9.226;2023-11-21T01:03:43;8.00;99.90
13205;DHT22;6667;52.634;9.226;2023-11-21T01:06:09;8.00;99.90
13205;DHT22;6667;52.634;9.226;2023-11-21T01:08:36;8.00;99.90
13205;DHT22;6667;52.634;9.226;2023-11-21T01:11:03;8.00;99.90
13205;DHT22;6667;52.634;9.226;2023-11-21T01:13:30;8.00;99.90
13205;DHT22;6667;52.634;9.226;2023-11-21T01:15:57;8.00;99.90
13205;DHT22;6667;52.634;9.226;2023-11-21T01:18:23;8.00;99.90
13205;DHT22;6667;52.634;9.226;2023-11-21T01:20:52;8.00;99.90
13205;DHT22;6667;52.634;9.226;2023-11-21T01:23:19;8.00;99.90
13205;DHT22;6667;52.634;9.226;2023-11-21T01:25:46;8.00;99.90
13205;DHT22;6667;52.634;9.226;2023-11-21T01:28:12;8.00;99.90
13205;DHT22;6667;52.634;9.226;2023-11-21T01:30:39;8.00;99.90
13205;DHT22;6667;52.634;9.226;2023-11-21T01:33:06;8.00;99.90
13205;DHT22;6667;52.634;9.226;2023-11-21T01:35:34;8.00;99.90
13205;DHT22;6667;52.634;9.226;2023-11-21T01:38:02;8.00;99.90
13205;DHT22;6667;52.634;9.226;2023-11-21T01:40:29;8.00;99.90
13205;DHT22;6667;52.634;9.226;2023-11-21T01:42:56;8.00;99.90
13205;DHT22;6667;52.634;9.226;2023-11-21T01:45:23;8.00;99.90
13205;DHT22;6667;52.634;9.226;2023-11-21T01:47:50;8.00;99.90
13205;DHT22;6667;52.634;9.226;2023-11-21T01:50:17;8.00;99.90
13205;DHT22;6667;52.634;9.226;2023-11-21T01:52:46;8.00;99.90
13205;DHT22;6667;52.634;9.226;2023-11-21T01:55:15;8.00;99.90
13205;DHT22;6667;52.634;9.226;2023-11-21T01:57:44;8.00;99.90
13205;DHT22;6667;52.634;9.226;2023-11-21T02:00:12;8.00;99.90
13205;DHT22;6667;52.634;9.226;2023-11-21T02:02:42;8.00;99.90
13205;DHT22;6667;52.634;9.226;2023-11-21T02:05:09;8.00;99.90
13205;DHT22;6667;52.634;9.226;2023-11-21T02:07:37;8.00;99.90
13205;DHT22;6667;52.634;9.226;2023-11-21T02:10:05;8.00;99.90
13205;DHT22;6667;52.634;9.226;2023-11-21T02:12:34;8.00;99.90
13205;DHT22;6667;52.634;9.226;2023-11-21T02:15:02;8.00;99.90
13205;DHT22;6667;52.634;9.226;2023-11-21T02:17:29;8.00;99.90
13205;DHT22;6667;52.634;9.226;2023-11-21T02:19:55;8.00;99.90
13205;DHT22;6667;52.634;9.226;2023-11-21T02:22:22;8.00;99.90
13205;DHT22;6667;52.634;9.226;2023-11-21T02:24:53;8.00;99.90
13205;DHT22;6667;52.634;9.226;2023-11-21T02:27:19;8.00;99.90
13205;DHT22;6667;52.634;9.226;2023-11-21T02:29:48;8.00;99.90
13205;DHT22;6667;52.634;9.226;2023-11-21T02:32:15;8.00;99.90
13205;DHT22;6667;52.634;9.226;2023-11-21T02:34:44;8.00;99.90
13205;DHT22;6667;52.634;9.226;2023-11-21T02:37:11;8.00;99.90
13205;DHT22;6667;52.634;9.226;2023-11-21T02:39:39;8.00;99.90
13205;DHT22;6667;52.634;9.226;2023-11-21T02:42:07;8.10;99.90
13205;DHT22;6667;52.634;9.226;2023-11-21T02:44:33;8.10;99.90
13205;DHT22;6667;52.634;9.226;2023-11-21T02:47:00;8.00;99.90
13205;DHT22;6667;52.634;9.226;2023-11-21T02:49:27;8.00;99.90
13205;DHT22;6667;52.634;9.226;2023-11-21T02:51:54;8.00;99.90
13205;DHT22;6667;52.634;9.226;2023-11-21T02:54:21;8.10;99.90
13205;DHT22;6667;52.634;9.226;2023-11-21T02:56:48;8.10;99.90
13205;DHT22;6667;52.634;9.226;2023-11-21T02:59:17;8.10;99.90
13205;DHT22;6667;52.634;9.226;2023-11-21T03:01:44;8.10;99.90
13205;DHT22;6667;52.634;9.226;2023-11-21T03:04:11;8.10;99.90
13205;DHT22;6667;52.634;9.226;2023-11-21T03:06:43;8.10;99.90
13205;DHT22;6667;52.634;9.226;2023-11-21T03:09:10;8.10;99.90
13205;DHT22;6667;52.634;9.226;2023-11-21T03:11:38;8.10;99.90
13205;DHT22;6667;52.634;9.226;2023-11-21T03:14:05;8.10;99.90
13205;DHT22;6667;52.634;9.226;2023-11-21T03:16:33;8.10;99.90
13205;DHT22;6667;52.634;9.226;2023-11-21T03:19:00;8.10;99.90
13205;DHT22;6667;52.634;9.226;2023-11-21T03:21:26;8.10;99.90
13205;DHT22;6667;52.634;9.226;2023-11-21T03:23:53;8.10;99.90
13205;DHT22;6667;52.634;9.226;2023-11-21T03:26:20;8.10;99.90
13205;DHT22;6667;52.634;9.226;2023-11-21T03:28:46;8.20;99.90
13205;DHT22;6667;52.634;9.226;2023-11-21T03:31:13;8.20;99.90
13205;DHT22;6667;52.634;9.226;2023-11-21T03:33:42;8.20;99.90
13205;DHT22;6667;52.634;9.226;2023-11-21T03:36:11;8.10;99.90
13205;DHT22;6667;52.634;9.226;2023-11-21T03:38:37;8.10;99.90
13205;DHT22;6667;52.634;9.226;2023-11-21T03:41:05;8.10;99.90
13205;DHT22;6667;52.634;9.226;2023-11-21T03:43:32;8.10;99.90
13205;DHT22;6667;52.634;9.226;2023-11-21T03:45:58;8.10;99.90
13205;DHT22;6667;52.634;9.226;2023-11-21T03:48:25;8.20;99.90
13205;DHT22;6667;52.634;9.226;2023-11-21T03:50:53;8.20;99.90
13205;DHT22;6667;52.634;9.226;2023-11-21T03:53:20;8.20;99.90
13205;DHT22;6667;52.634;9.226;2023-11-21T03:55:47;8.20;99.90
13205;DHT22;6667;52.634;9.226;2023-11-21T03:58:14;8.20;99.90
13205;DHT22;6667;52.634;9.226;2023-11-21T04:00:41;8.20;99.90
13205;DHT22;6667;52.634;9.226;2023-11-21T04:03:08;8.20;99.90
13205;DHT22;6667;52.634;9.226;2023-11-21T04:05:34;8.20;99.90
13205;DHT22;6667;52.634;9.226;2023-11-21T04:08:03;8.20;99.90
13205;DHT22;6667;52.634;9.226;2023-11-21T04:10:29;8.30;99.90
13205;DHT22;6667;52.634;9.226;2023-11-21T04:12:56;8.30;99.90
13205;DHT22;6667;52.634;9.226;2023-11-21T04:15:23;8.30;99.90
13205;DHT22;6667;52.634;9.226;2023-11-21T04:17:50;8.30;99.90
13205;DHT22;6667;52.634;9.226;2023-11-21T04:20:16;8.30;99.90
13205;DHT22;6667;52.634;9.226;2023-11-21T04:22:44;8.30;99.90
13205;DHT22;6667;52.634;9.226;2023-11-21T04:25:13;8.30;99.90
13205;DHT22;6667;52.634;9.226;2023-11-21T04:27:41;8.30;99.90
13205;DHT22;6667;52.634;9.226;2023-11-21T04:30:10;8.30;99.90
13205;DHT22;6667;52.634;9.226;2023-11-21T04:32:37;8.30;99.90
13205;DHT22;6667;52.634;9.226;2023-11-21T04:35:05;8.30;99.90
13205;DHT22;6667;52.634;9.226;2023-11-21T04:37:32;8.30;99.90
13205;DHT22;6667;52.634;9.226;2023-11-21T04:39:58;8.30;99.90
13205;DHT22;6667;52.634;9.226;2023-11-21T04:42:26;8.40;99.90
13205;DHT22;6667;52.634;9.226;2023-11-21T04:44:54;8.30;99.90
13205;DHT22;6667;52.634;9.226;2023-11-21T04:47:21;8.40;99.90
13205;DHT22;6667;52.634;9.226;2023-11-21T04:49:48;8.40;99.90
13205;DHT22;6667;52.634;9.226;2023-11-21T04:52:14;8.40;99.90
13205;DHT22;6667;52.634;9.226;2023-11-21T04:54:41;8.40;99.90
13205;DHT22;6667;52.634;9.226;2023-11-21T04:57:08;8.40;99.90
13205;DHT22;6667;52.634;9.226;2023-11-21T04:59:36;8.40;99.90
13205;DHT22;6667;52.634;9.226;2023-11-21T05:02:03;8.40;99.90
13205;DHT22;6667;52.634;9.226;2023-11-21T05:04:30;8.40;99.90
13205;DHT22;6667;52.634;9.226;2023-11-21T05:06:57;8.40;99.90
13205;DHT22;6667;52.634;9.226;2023-11-21T05:09:23;8.50;99.90
13205;DHT22;6667;52.634;9.226;2023-11-21T05:11:50;8.50;99.90
13205;DHT22;6667;52.634;9.226;2023-11-21T05:14:18;8.50;99.90
13205;DHT22;6667;52.634;9.226;2023-11-21T05:16:46;8.50;99.90
13205;DHT22;6667;52.634;9.226;2023-11-21T05:19:13;8.50;99.90
13205;DHT22;6667;52.634;9.226;2023-11-21T05:21:40;8.50;99.90
13205;DHT22;6667;52.634;9.226;2023-11-21T05:24:07;8.50;99.90
13205;DHT22;6667;52.634;9.226;2023-11-21T05:26:34;8.50;99.90
13205;DHT22;6667;52.634;9.226;2023-11-21T05:29:01;8.50;99.90
13205;DHT22;6667;52.634;9.226;2023-11-21T05:31:28;8.50;99.90
13205;DHT22;6667;52.634;9.226;2023-11-21T05:33:56;8.60;99.90
13205;DHT22;6667;52.634;9.226;2023-11-21T05:36:22;8.60;99.90
13205;DHT22;6667;52.634;9.226;2023-11-21T05:38:49;8.60;99.90
13205;DHT22;6667;52.634;9.226;2023-11-21T05:41:16;8.60;99.90
13205;DHT22;6667;52.634;9.226;2023-11-21T05:43:42;8.60;99.90
13205;DHT22;6667;52.634;9.226;2023-11-21T05:46:09;8.60;99.90
13205;DHT22;6667;52.634;9.226;2023-11-21T05:48:36;8.60;99.90
13205;DHT22;6667;52.634;9.226;2023-11-21T05:51:06;8.60;99.90
13205;DHT22;6667;52.634;9.226;2023-11-21T05:53:33;8.60;99.90
13205;DHT22;6667;52.634;9.226;2023-11-21T05:56:00;8.60;99.90
13205;DHT22;6667;52.634;9.226;2023-11-21T05:58:27;8.50;99.90
13205;DHT22;6667;52.634;9.226;2023-11-21T06:00:53;8.50;99.90
13205;DHT22;6667;52.634;9.226;2023-11-21T06:03:20;8.50;99.90
13205;DHT22;6667;52.634;9.226;2023-11-21T06:05:48;8.50;99.90
13205;DHT22;6667;52.634;9.226;2023-11-21T06:08:16;8.50;99.90
13205;DHT22;6667;52.634;9.226;2023-11-21T06:10:44;8.40;99.90
13205;DHT22;6667;52.634;9.226;2023-11-21T06:13:14;8.40;99.90
13205;DHT22;6667;52.634;9.226;2023-11-21T06:15:41;8.40;99.90
13205;DHT22;6667;52.634;9.226;2023-11-21T06:18:08;8.40;99.90
13205;DHT22;6667;52.634;9.226;2023-11-21T06:20:36;8.40;99.90
13205;DHT22;6667;52.634;9.226;2023-11-21T06:23:03;8.40;99.90
13205;DHT22;6667;52.634;9.226;2023-11-21T06:25:32;8.40;99.90
13205;DHT22;6667;52.634;9.226;2023-11-21T06:28:01;8.40;99.90
13205;DHT22;6667;52.634;9.226;2023-11-21T06:30:28;8.30;99.90
13205;DHT22;6667;52.634;9.226;2023-11-21T06:32:55;8.30;99.90
13205;DHT22;6667;52.634;9.226;2023-11-21T06:35:22;8.30;99.90
13205;DHT22;6667;52.634;9.226;2023-11-21T06:37:49;8.30;99.90
13205;DHT22;6667;52.634;9.226;2023-11-21T06:40:17;8.30;99.90
13205;DHT22;6667;52.634;9.226;2023-11-21T06:42:46;8.30;99.90
13205;DHT22;6667;52.634;9.226;2023-11-21T06:45:13;8.30;99.90
13205;DHT22;6667;52.634;9.226;2023-11-21T06:47:40;8.30;99.90
13205;DHT22;6667;52.634;9.226;2023-11-21T06:50:07;8.30;99.90
13205;DHT22;6667;52.634;9.226;2023-11-21T06:52:34;8.30;99.90
13205;DHT22;6667;52.634;9.226;2023-11-21T06:55:01;8.30;99.90
13205;DHT22;6667;52.634;9.226;2023-11-21T06:57:28;8.20;99.90
13205;DHT22;6667;52.634;9.226;2023-11-21T06:59:56;8.20;99.90
13205;DHT22;6667;52.634;9.226;2023-11-21T07:02:23;8.10;99.90
13205;DHT22;6667;52.634;9.226;2023-11-21T07:04:50;8.10;99.90
13205;DHT22;6667;52.634;9.226;2023-11-21T07:07:17;8.00;99.90
13205;DHT22;6667;52.634;9.226;2023-11-21T07:09:44;8.00;99.90
13205;DHT22;6667;52.634;9.226;2023-11-21T07:12:11;8.00;99.90
13205;DHT22;6667;52.634;9.226;2023-11-21T07:14:38;8.00;99.90
13205;DHT22;6667;52.634;9.226;2023-11-21T07:17:10;7.90;99.90
13205;DHT22;6667;52.634;9.226;2023-11-21T07:19:37;7.90;99.90
13205;DHT22;6667;52.634;9.226;2023-11-21T07:22:04;7.90;99.90
13205;DHT22;6667;52.634;9.226;2023-11-21T07:24:31;7.90;99.90
13205;DHT22;6667;52.634;9.226;2023-11-21T07:26:58;7.90;99.90
13205;DHT22;6667;52.634;9.226;2023-11-21T07:29:25;7.90;99.90
13205;DHT22;6667;52.634;9.226;2023-11-21T07:31:52;7.90;99.90
13205;DHT22;6667;52.634;9.226;2023-11-21T07:34:20;7.90;99.90
13205;DHT22;6667;52.634;9.226;2023-11-21T07:36:47;7.80;99.90
13205;DHT22;6667;52.634;9.226;2023-11-21T07:39:13;7.70;99.90
13205;DHT22;6667;52.634;9.226;2023-11-21T07:41:41;7.70;99.90
13205;DHT22;6667;52.634;9.226;2023-11-21T07:44:14;7.70;99.90
13205;DHT22;6667;52.634;9.226;2023-11-21T07:46:41;7.70;99.90
13205;DHT22;6667;52.634;9.226;2023-11-21T07:49:08;7.70;99.90
13205;DHT22;6667;52.634;9.226;2023-11-21T07:51:36;7.70;99.90
13205;DHT22;6667;52.634;9.226;2023-11-21T07:54:02;7.70;99.90
13205;DHT22;6667;52.634;9.226;2023-11-21T07:56:29;7.70;99.90
13205;DHT22;6667;52.634;9.226;2023-11-21T07:58:56;7.70;99.90
13205;DHT22;6667;52.634;9.226;2023-11-21T08:01:22;7.60;99.90
13205;DHT22;6667;52.634;9.226;2023-11-21T08:03:49;7.60;99.90
13205;DHT22;6667;52.634;9.226;2023-11-21T08:06:18;7.60;99.90
13205;DHT22;6667;52.634;9.226;2023-11-21T08:08:46;7.60;99.90
13205;DHT22;6667;52.634;9.226;2023-11-21T08:11:12;7.60;99.90
13205;DHT22;6667;52.634;9.226;2023-11-21T08:13:39;7.70;99.90
13205;DHT22;6667;52.634;9.226;2023-11-21T08:16:07;7.70;99.90
13205;DHT22;6667;52.634;9.226;2023-11-21T08:18:34;7.70;99.90
13205;DHT22;6667;52.634;9.226;2023-11-21T08:21:01;7.70;99.90
13205;DHT22;6667;52.634;9.226;2023-11-21T08:23:28;7.70;99.90
13205;DHT22;6667;52.634;9.226;2023-11-21T08:25:56;7.70;99.90
13205;DHT22;6667;52.634;9.226;2023-11-21T08:28:23;7.70;99.90
13205;DHT22;6667;52.634;9.226;2023-11-21T08:30:51;7.70;99.90
13205;DHT22;6667;52.634;9.226;2023-11-21T08:33:18;7.60;99.90
13205;DHT22;6667;52.634;9.226;2023-11-21T08:35:45;7.60;99.90
13205;DHT22;6667;52.634;9.226;2023-11-21T08:38:12;7.70;99.90
13205;DHT22;6667;52.634;9.226;2023-11-21T08:40:39;7.70;99.90
13205;DHT22;6667;52.634;9.226;2023-11-21T08:43:07;7.70;99.90
13205;DHT22;6667;52.634;9.226;2023-11-21T08:45:34;7.70;99.90
13205;DHT22;6667;52.634;9.226;2023-11-21T08:48:01;7.70;99.90
13205;DHT22;6667;52.634;9.226;2023-11-21T08:50:28;7.80;99.90
13205;DHT22;6667;52.634;9.226;2023-11-21T08:52:54;7.70;99.90
13205;DHT22;6667;52.634;9.226;2023-11-21T08:55:21;7.70;99.90
13205;DHT22;6667;52.634;9.226;2023-11-21T08:57:48;7.70;99.90
13205;DHT22;6667;52.634;9.226;2023-11-21T09:00:17;7.80;99.90
13205;DHT22;6667;52.634;9.226;2023-11-21T09:02:44;7.70;99.90
13205;DHT22;6667;52.634;9.226;2023-11-21T09:05:13;7.70;99.90
13205;DHT22;6667;52.634;9.226;2023-11-21T09:07:41;7.70;99.90
13205;DHT22;6667;52.634;9.226;2023-11-21T09:10:08;7.70;99.90
13205;DHT22;6667;52.634;9.226;2023-11-21T09:12:35;7.80;99.90
13205;DHT22;6667;52.634;9.226;2023-11-21T09:15:03;7.70;99.90
13205;DHT22;6667;52.634;9.226;2023-11-21T09:17:31;7.70;99.90
13205;DHT22;6667;52.634;9.226;2023-11-21T09:19:59;7.70;99.90
13205;DHT22;6667;52.634;9.226;2023-11-21T09:22:26;7.80;99.90
13205;DHT22;6667;52.634;9.226;2023-11-21T09:24:55;7.70;99.90
13205;DHT22;6667;52.634;9.226;2023-11-21T09:27:22;7.70;99.90
13205;DHT22;6667;52.634;9.226;2023-11-21T09:29:48;7.70;99.90
13205;DHT22;6667;52.634;9.226;2023-11-21T09:32:15;7.80;99.90
13205;DHT22;6667;52.634;9.226;2023-11-21T09:34:45;7.70;99.90
13205;DHT22;6667;52.634;9.226;2023-11-21T09:37:12;7.80;99.90
13205;DHT22;6667;52.634;9.226;2023-11-21T09:39:38;7.80;99.90
13205;DHT22;6667;52.634;9.226;2023-11-21T09:42:10;7.70;99.90
13205;DHT22;6667;52.634;9.226;2023-11-21T09:44:46;7.70;99.90
13205;DHT22;6667;52.634;9.226;2023-11-21T09:47:15;7.80;99.90
13205;DHT22;6667;52.634;9.226;2023-11-21T09:49:47;7.80;99.90
13205;DHT22;6667;52.634;9.226;2023-11-21T09:52:22;7.70;99.90
13205;DHT22;6667;52.634;9.226;2023-11-21T09:54:51;7.70;99.90
13205;DHT22;6667;52.634;9.226;2023-11-21T09:57:19;7.70;99.90
13205;DHT22;6667;52.634;9.226;2023-11-21T09:59:47;7.80;99.90
13205;DHT22;6667;52.634;9.226;2023-11-21T10:02:16;7.80;99.90
13205;DHT22;6667;52.634;9.226;2023-11-21T10:04:44;7.70;99.90
13205;DHT22;6667;52.634;9.226;2023-11-21T10:07:12;7.70;99.90
13205;DHT22;6667;52.634;9.226;2023-11-21T10:09:41;7.80;99.90
13205;DHT22;6667;52.634;9.226;2023-11-21T10:12:10;7.80;99.90
13205;DHT22;6667;52.634;9.226;2023-11-21T10:14:41;7.80;99.90
13205;DHT22;6667;52.634;9.226;2023-11-21T10:17:10;7.80;99.90
13205;DHT22;6667;52.634;9.226;2023-11-21T10:19:39;7.80;99.90
13205;DHT22;6667;52.634;9.226;2023-11-21T10:22:06;7.80;99.90
13205;DHT22;6667;52.634;9.226;2023-11-21T10:24:35;7.80;99.90
13205;DHT22;6667;52.634;9.226;2023-11-21T10:27:04;7.80;99.90
13205;DHT22;6667;52.634;9.226;2023-11-21T10:29:30;7.80;99.90
13205;DHT22;6667;52.634;9.226;2023-11-21T10:32:01;7.90;99.90
13205;DHT22;6667;52.634;9.226;2023-11-21T10:34:28;8.00;99.90
13205;DHT22;6667;52.634;9.226;2023-11-21T10:36:55;7.90;99.90
13205;DHT22;6667;52.634;9.226;2023-11-21T10:39:24;8.00;99.90
13205;DHT22;6667;52.634;9.226;2023-11-21T10:41:57;8.00;99.90
13205;DHT22;6667;52.634;9.226;2023-11-21T10:44:24;8.00;99.90
13205;DHT22;6667;52.634;9.226;2023-11-21T10:46:52;8.10;99.90
13205;DHT22;6667;52.634;9.226;2023-11-21T10:49:22;8.00;99.90
13205;DHT22;6667;52.634;9.226;2023-11-21T10:51:51;8.00;99.90
13205;DHT22;6667;52.634;9.226;2023-11-21T10:54:19;8.10;99.90
13205;DHT22;6667;52.634;9.226;2023-11-21T10:56:49;8.10;99.90
13205;DHT22;6667;52.634;9.226;2023-11-21T10:59:18;8.10;99.90
13205;DHT22;6667;52.634;9.226;2023-11-21T11:01:47;8.10;99.90
13205;DHT22;6667;52.634;9.226;2023-11-21T11:04:18;8.10;99.90
13205;DHT22;6667;52.634;9.226;2023-11-21T11:06:46;8.20;99.90
13205;DHT22;6667;52.634;9.226;2023-11-21T11:09:16;8.20;99.90
13205;DHT22;6667;52.634;9.226;2023-11-21T11:11:44;8.20;99.90
13205;DHT22;6667;52.634;9.226;2023-11-21T11:14:11;8.10;99.90
13205;DHT22;6667;52.634;9.226;2023-11-21T11:16:40;8.10;99.90
13205;DHT22;6667;52.634;9.226;2023-11-21T11:19:08;8.20;99.90
13205;DHT22;6667;52.634;9.226;2023-11-21T11:21:44;8.20;99.90
13205;DHT22;6667;52.634;9.226;2023-11-21T11:24:26;8.30;99.90
13205;DHT22;6667;52.634;9.226;2023-11-21T11:27:01;8.20;99.90
13205;DHT22;6667;52.634;9.226;2023-11-21T11:29:39;8.20;99.90
13205;DHT22;6667;52.634;9.226;2023-11-21T11:32:24;8.20;99.90
13205;DHT22;6667;52.634;9.226;2023-11-21T11:34:59;8.20;99.90
13205;DHT22;6667;52.634;9.226;2023-11-21T11:37:27;8.20;99.90
13205;DHT22;6667;52.634;9.226;2023-11-21T11:39:54;8.20;99.90
13205;DHT22;6667;52.634;9.226;2023-11-21T11:42:22;8.20;99.90
13205;DHT22;6667;52.634;9.226;2023-11-21T11:44:50;8.30;99.90
13205;DHT22;6667;52.634;9.226;2023-11-21T11:47:22;8.30;99.90
13205;DHT22;6667;52.634;9.226;2023-11-21T11:50:04;8.30;99.90
13205;DHT22;6667;52.634;9.226;2023-11-21T11:52:38;8.30;99.90
13205;DHT22;6667;52.634;9.226;2023-11-21T11:55:07;8.30;99.90
13205;DHT22;6667;52.634;9.226;2023-11-21T11:57:37;8.40;99.90
13205;DHT22;6667;52.634;9.226;2023-11-21T12:00:09;8.50;99.90
13205;DHT22;6667;52.634;9.226;2023-11-21T12:02:38;8.60;99.90
13205;DHT22;6667;52.634;9.226;2023-11-21T12:05:10;8.40;99.90
13205;DHT22;6667;52.634;9.226;2023-11-21T12:07:45;8.40;99.90
13205;DHT22;6667;52.634;9.226;2023-11-21T12:10:14;8.40;99.90
13205;DHT22;6667;52.634;9.226;2023-11-21T12:12:44;8.50;99.90
13205;DHT22;6667;52.634;9.226;2023-11-21T12:15:11;8.40;99.90
13205;DHT22;6667;52.634;9.226;2023-11-21T12:17:40;8.50;99.90
13205;DHT22;6667;52.634;9.226;2023-11-21T12:20:09;8.50;99.90
13205;DHT22;6667;52.634;9.226;2023-11-21T12:22:42;8.50;99.90
13205;DHT22;6667;52.634;9.226;2023-11-21T12:25:09;8.50;99.90
13205;DHT22;6667;52.634;9.226;2023-11-21T12:27:40;8.60;99.90
13205;DHT22;6667;52.634;9.226;2023-11-21T12:30:08;8.60;99.90
13205;DHT22;6667;52.634;9.226;2023-11-21T12:32:40;8.60;99.90
13205;DHT22;6667;52.634;9.226;2023-11-21T12:35:08;8.70;99.90
13205;DHT22;6667;52.634;9.226;2023-11-21T12:37:35;8.70;99.90
13205;DHT22;6667;52.634;9.226;2023-11-21T12:40:02;8.70;99.90
13205;DHT22;6667;52.634;9.226;2023-11-21T12:42:29;8.70;99.90
13205;DHT22;6667;52.634;9.226;2023-11-21T12:45:18;8.60;99.90
13205;DHT22;6667;52.634;9.226;2023-11-21T12:47:47;8.70;99.90
13205;DHT22;6667;52.634;9.226;2023-11-21T12:50:14;8.60;99.90
13205;DHT22;6667;52.634;9.226;2023-11-21T12:52:45;8.70;99.90
13205;DHT22;6667;52.634;9.226;2023-11-21T12:55:15;8.60;99.90
13205;DHT22;6667;52.634;9.226;2023-11-21T12:57:43;8.60;99.90
13205;DHT22;6667;52.634;9.226;2023-11-21T13:00:11;8.60;99.90
13205;DHT22;6667;52.634;9.226;2023-11-21T13:02:41;8.60;99.90
13205;DHT22;6667;52.634;9.226;2023-11-21T13:05:09;8.60;99.90
13205;DHT22;6667;52.634;9.226;2023-11-21T13:07:47;8.60;99.90
13205;DHT22;6667;52.634;9.226;2023-11-21T13:10:16;8.60;99.90
13205;DHT22;6667;52.634;9.226;2023-11-21T13:12:43;8.50;99.90
13205;DHT22;6667;52.634;9.226;2023-11-21T13:15:14;8.50;99.90
13205;DHT22;6667;52.634;9.226;2023-11-21T13:17:42;8.40;99.90
13205;DHT22;6667;52.634;9.226;2023-11-21T13:20:11;8.40;99.90
13205;DHT22;6667;52.634;9.226;2023-11-21T13:22:46;8.40;99.90
13205;DHT22;6667;52.634;9.226;2023-11-21T13:25:14;8.40;99.90
13205;DHT22;6667;52.634;9.226;2023-11-21T13:27:43;8.40;99.90
13205;DHT22;6667;52.634;9.226;2023-11-21T13:30:11;8.40;99.90
13205;DHT22;6667;52.634;9.226;2023-11-21T13:32:40;8.40;99.90
13205;DHT22;6667;52.634;9.226;2023-11-21T13:35:07;8.50;99.90
13205;DHT22;6667;52.634;9.226;2023-11-21T13:37:42;8.50;99.90
13205;DHT22;6667;52.634;9.226;2023-11-21T13:40:11;8.50;99.90
13205;DHT22;6667;52.634;9.226;2023-11-21T13:42:40;8.50;99.90
13205;DHT22;6667;52.634;9.226;2023-11-21T13:45:08;8.50;99.90
13205;DHT22;6667;52.634;9.226;2023-11-21T13:47:34;8.50;99.90
13205;DHT22;6667;52.634;9.226;2023-11-21T13:50:04;8.50;99.90
13205;DHT22;6667;52.634;9.226;2023-11-21T13:52:33;8.40;99.90
13205;DHT22;6667;52.634;9.226;2023-11-21T13:55:03;8.40;99.90
13205;DHT22;6667;52.634;9.226;2023-11-21T13:57:32;8.40;99.90
13205;DHT22;6667;52.634;9.226;2023-11-21T13:59:59;8.40;99.90
13205;DHT22;6667;52.634;9.226;2023-11-21T14:02:26;8.40;99.90
13205;DHT22;6667;52.634;9.226;2023-11-21T14:05:00;8.40;99.90
13205;DHT22;6667;52.634;9.226;2023-11-21T14:07:34;8.30;99.90
13205;DHT22;6667;52.634;9.226;2023-11-21T14:10:02;8.30;99.90
13205;DHT22;6667;52.634;9.226;2023-11-21T14:12:30;8.20;99.90
13205;DHT22;6667;52.634;9.226;2023-11-21T14:15:00;8.20;99.90
13205;DHT22;6667;52.634;9.226;2023-11-21T14:17:28;8.20;99.90
13205;DHT22;6667;52.634;9.226;2023-11-21T14:19:55;8.20;99.90
13205;DHT22;6667;52.634;9.226;2023-11-21T14:22:21;8.10;99.90
13205;DHT22;6667;52.634;9.226;2023-11-21T14:24:51;8.20;99.90
13205;DHT22;6667;52.634;9.226;2023-11-21T14:27:19;8.20;99.90
13205;DHT22;6667;52.634;9.226;2023-11-21T14:29:46;8.10;99.90
13205;DHT22;6667;52.634;9.226;2023-11-21T14:32:14;8.10;99.90
13205;DHT22;6667;52.634;9.226;2023-11-21T14:34:41;8.10;99.90
13205;DHT22;6667;52.634;9.226;2023-11-21T14:37:10;8.00;99.90
13205;DHT22;6667;52.634;9.226;2023-11-21T14:39:39;8.00;99.90
13205;DHT22;6667;52.634;9.226;2023-11-21T14:42:10;8.00;99.90
13205;DHT22;6667;52.634;9.226;2023-11-21T14:44:38;7.90;99.90
13205;DHT22;6667;52.634;9.226;2023-11-21T14:47:06;7.90;99.90
13205;DHT22;6667;52.634;9.226;2023-11-21T14:49:41;7.90;99.90
13205;DHT22;6667;52.634;9.226;2023-11-21T14:52:18;7.90;99.90
13205;DHT22;6667;52.634;9.226;2023-11-21T14:54:57;7.90;99.90
13205;DHT22;6667;52.634;9.226;2023-11-21T14:57:45;7.90;99.90
13205;DHT22;6667;52.634;9.226;2023-11-21T15:00:17;8.00;99.90
13205;DHT22;6667;52.634;9.226;2023-11-21T15:03:01;8.00;99.90
13205;DHT22;6667;52.634;9.226;2023-11-21T15:05:27;7.90;99.90
13205;DHT22;6667;52.634;9.226;2023-11-21T15:07:53;7.90;99.90
13205;DHT22;6667;52.634;9.226;2023-11-21T15:10:22;7.90;99.90
13205;DHT22;6667;52.634;9.226;2023-11-21T15:12:56;7.90;99.90
13205;DHT22;6667;52.634;9.226;2023-11-21T15:15:24;7.80;99.90
13205;DHT22;6667;52.634;9.226;2023-11-21T15:17:50;7.80;99.90
13205;DHT22;6667;52.634;9.226;2023-11-21T15:20:17;7.80;99.90
13205;DHT22;6667;52.634;9.226;2023-11-21T15:22:46;7.80;99.90
13205;DHT22;6667;52.634;9.226;2023-11-21T15:25:13;7.70;99.90
13205;DHT22;6667;52.634;9.226;2023-11-21T15:27:40;7.80;99.90
13205;DHT22;6667;52.634;9.226;2023-11-21T15:30:07;7.80;99.90
13205;DHT22;6667;52.634;9.226;2023-11-21T15:32:36;7.80;99.90
13205;DHT22;6667;52.634;9.226;2023-11-21T15:35:02;7.70;99.90
13205;DHT22;6667;52.634;9.226;2023-11-21T15:37:29;7.70;99.90
13205;DHT22;6667;52.634;9.226;2023-11-21T15:39:56;7.70;99.90
13205;DHT22;6667;52.634;9.226;2023-11-21T15:42:23;7.60;99.90
13205;DHT22;6667;52.634;9.226;2023-11-21T15:44:49;7.40;99.90
13205;DHT22;6667;52.634;9.226;2023-11-21T15:47:16;7.40;99.90
13205;DHT22;6667;52.634;9.226;2023-11-21T15:49:45;7.40;99.90
13205;DHT22;6667;52.634;9.226;2023-11-21T15:52:12;7.30;99.90
13205;DHT22;6667;52.634;9.226;2023-11-21T15:54:40;7.30;99.90
13205;DHT22;6667;52.634;9.226;2023-11-21T15:57:07;7.30;99.90
13205;DHT22;6667;52.634;9.226;2023-11-21T15:59:35;7.30;99.90
13205;DHT22;6667;52.634;9.226;2023-11-21T16:02:01;7.30;99.90
13205;DHT22;6667;52.634;9.226;2023-11-21T16:04:30;7.30;99.90
13205;DHT22;6667;52.634;9.226;2023-11-21T16:06:57;7.30;99.90
13205;DHT22;6667;52.634;9.226;2023-11-21T16:09:25;7.30;99.90